createdAt,value
2018-04-24T00:00:43.504Z,9.40
2018-04-24T00:03:10.928Z,9.67
2018-04-24T00:05:38.304Z,8.70
2018-04-24T00:08:05.696Z,8.03
2018-04-24T00:10:33.187Z,9.47
2018-04-24T00:13:00.591Z,8.77
2018-04-24T00:15:27.977Z,17.33
2018-04-24T00:17:55.364Z,9.53
2018-04-24T00:20:22.767Z,9.60
2018-04-24T00:22:50.137Z,8.23
2018-04-24T00:25:17.533Z,8.50
2018-04-24T00:27:44.894Z,7.77
2018-04-24T00:30:12.352Z,7.70
2018-04-24T00:32:39.736Z,11.90
2018-04-24T00:35:07.133Z,10.13
2018-04-24T00:37:34.519Z,10.20
2018-04-24T00:40:01.917Z,8.47
2018-04-24T00:42:29.287Z,9.53
2018-04-24T00:44:56.675Z,10.77
2018-04-24T00:47:24.072Z,8.00
2018-04-24T00:49:51.484Z,12.80
2018-04-24T00:52:18.854Z,7.50
2018-04-24T00:54:46.235Z,7.60
2018-04-24T00:57:13.924Z,8.80
2018-04-24T00:59:41.317Z,8.27
2018-04-24T01:02:09.045Z,7.30
2018-04-24T01:04:36.414Z,7.80
2018-04-24T01:07:03.795Z,7.83
2018-04-24T01:09:31.170Z,7.53
2018-04-24T01:11:58.550Z,8.47
2018-04-24T01:14:25.935Z,7.53
2018-04-24T01:16:53.323Z,8.07
2018-04-24T01:19:20.697Z,8.20
2018-04-24T01:21:48.075Z,9.83
2018-04-24T01:24:15.448Z,7.93
2018-04-24T01:26:43.013Z,8.77
2018-04-24T01:29:10.385Z,7.77
2018-04-24T01:31:37.771Z,8.00
2018-04-24T01:34:05.157Z,8.87
2018-04-24T01:36:32.533Z,7.07
2018-04-24T01:38:59.917Z,6.60
2018-04-24T01:41:27.283Z,7.63
2018-04-24T01:43:54.666Z,9.07
2018-04-24T01:46:22.052Z,6.63
2018-04-24T01:48:49.436Z,6.60
2018-04-24T01:51:16.835Z,6.67
2018-04-24T01:53:44.228Z,6.90
2018-04-24T01:56:11.614Z,6.80
2018-04-24T01:58:39.190Z,6.30
2018-04-24T02:01:06.561Z,7.83
2018-04-24T02:03:33.923Z,6.87
2018-04-24T02:06:01.315Z,7.50
2018-04-24T02:08:28.688Z,7.93
2018-04-24T02:10:56.079Z,6.40
2018-04-24T02:13:23.460Z,8.73
2018-04-24T02:15:50.846Z,7.43
2018-04-24T02:18:18.234Z,7.60
2018-04-24T02:20:45.616Z,7.73
2018-04-24T02:23:12.999Z,8.90
2018-04-24T02:25:40.393Z,8.70
2018-04-24T02:28:07.763Z,8.50
2018-04-24T02:30:35.135Z,8.17
2018-04-24T02:33:02.528Z,8.03
2018-04-24T02:35:29.917Z,8.10
2018-04-24T02:37:57.306Z,9.67
2018-04-24T02:40:24.741Z,8.50
2018-04-24T02:42:52.071Z,8.97
2018-04-24T02:45:19.443Z,8.37
2018-04-24T02:47:46.823Z,9.10
2018-04-24T02:50:14.207Z,9.47
2018-04-24T02:52:41.591Z,9.63
2018-04-24T02:55:08.970Z,10.50
2018-04-24T02:57:36.377Z,10.63
2018-04-24T03:00:03.752Z,10.50
2018-04-24T03:02:31.124Z,10.37
2018-04-24T03:04:58.520Z,11.30
2018-04-24T03:07:25.895Z,12.50
2018-04-24T03:09:53.297Z,11.10
2018-04-24T03:12:20.684Z,11.47
2018-04-24T03:14:48.075Z,11.40
2018-04-24T03:17:15.454Z,11.90
2018-04-24T03:19:42.853Z,10.70
2018-04-24T03:22:10.234Z,10.57
2018-04-24T03:24:37.630Z,11.27
2018-04-24T03:27:05.016Z,11.27
2018-04-24T03:29:32.407Z,10.27
2018-04-24T03:31:59.798Z,12.23
2018-04-24T03:34:27.182Z,10.00
2018-04-24T03:36:54.573Z,11.67
2018-04-24T03:39:21.977Z,11.50
2018-04-24T03:41:49.362Z,11.00
2018-04-24T03:44:16.747Z,10.50
2018-04-24T03:46:44.132Z,8.90
2018-04-24T03:49:11.508Z,10.10
2018-04-24T03:51:38.894Z,10.60
2018-04-24T03:54:06.287Z,11.33
2018-04-24T03:56:33.683Z,11.27
2018-04-24T03:59:01.064Z,10.57
2018-04-24T04:01:28.500Z,11.40
2018-04-24T04:03:55.904Z,10.60
2018-04-24T04:06:23.310Z,11.30
2018-04-24T04:08:50.703Z,11.63
2018-04-24T04:11:18.094Z,11.60
2018-04-24T04:13:45.468Z,10.37
2018-04-24T04:16:12.859Z,14.90
2018-04-24T04:18:52.095Z,11.73
2018-04-24T04:21:31.235Z,11.50
2018-04-24T04:24:10.455Z,11.23
2018-04-24T04:26:37.843Z,11.00
2018-04-24T04:29:05.234Z,12.20
2018-04-24T04:31:32.631Z,11.07
2018-04-24T04:34:00.044Z,11.13
2018-04-24T04:36:27.518Z,11.93
2018-04-24T04:38:54.904Z,10.47
2018-04-24T04:41:22.322Z,10.53
2018-04-24T04:43:49.666Z,11.30
2018-04-24T04:46:17.059Z,12.97
2018-04-24T04:48:44.496Z,11.40
2018-04-24T04:51:11.874Z,11.17
2018-04-24T04:53:39.276Z,10.83
2018-04-24T04:56:06.708Z,11.40
2018-04-24T04:58:34.058Z,12.57
2018-04-24T05:01:01.444Z,11.43
2018-04-24T05:03:28.834Z,12.97
2018-04-24T05:05:56.215Z,10.57
2018-04-24T05:08:23.616Z,10.33
2018-04-24T05:10:51.005Z,10.77
2018-04-24T05:13:18.389Z,14.67
2018-04-24T05:15:45.881Z,12.07
2018-04-24T05:18:13.263Z,10.53
2018-04-24T05:20:40.647Z,11.20
2018-04-24T05:23:08.048Z,9.90
2018-04-24T05:25:35.440Z,11.60
2018-04-24T05:28:02.829Z,11.27
2018-04-24T05:30:30.224Z,11.77
2018-04-24T05:32:57.615Z,12.07
2018-04-24T05:35:25.007Z,11.40
2018-04-24T05:37:52.396Z,11.33
2018-04-24T05:40:19.780Z,11.63
2018-04-24T05:42:47.219Z,12.43
2018-04-24T05:45:14.610Z,11.97
2018-04-24T05:47:41.990Z,11.53
2018-04-24T05:50:09.496Z,11.73
2018-04-24T05:52:36.882Z,12.47
2018-04-24T05:55:04.272Z,12.17
2018-04-24T05:57:31.664Z,13.33
2018-04-24T05:59:59.052Z,13.03
2018-04-24T06:02:26.439Z,13.60
2018-04-24T06:04:53.874Z,11.83
2018-04-24T06:07:21.312Z,13.17
2018-04-24T06:09:48.751Z,12.70
2018-04-24T06:12:16.153Z,12.83
2018-04-24T06:14:43.539Z,12.53
2018-04-24T06:17:10.941Z,12.23
2018-04-24T06:19:38.327Z,12.50
2018-04-24T06:22:06.114Z,12.27
2018-04-24T06:24:33.513Z,12.10
2018-04-24T06:27:00.913Z,12.40
2018-04-24T06:29:28.293Z,12.40
2018-04-24T06:31:55.688Z,11.90
2018-04-24T06:34:23.079Z,11.97
2018-04-24T06:36:50.469Z,11.33
2018-04-24T06:39:17.860Z,10.73
2018-04-24T06:41:45.235Z,12.60
2018-04-24T06:44:12.633Z,10.73
2018-04-24T06:46:40.017Z,12.60
2018-04-24T06:49:07.402Z,11.93
2018-04-24T06:51:34.788Z,11.07
2018-04-24T06:54:02.176Z,10.27
2018-04-24T06:56:29.558Z,10.20
2018-04-24T06:58:57.513Z,10.63
2018-04-24T07:01:24.900Z,12.37
2018-04-24T07:03:52.300Z,10.93
2018-04-24T07:06:19.721Z,11.33
2018-04-24T07:08:47.083Z,10.53
2018-04-24T07:11:14.467Z,11.00
2018-04-24T07:13:41.855Z,10.53
2018-04-24T07:16:09.235Z,11.10
2018-04-24T07:18:36.628Z,11.83
2018-04-24T07:21:04.019Z,11.07
2018-04-24T07:23:31.379Z,9.83
2018-04-24T07:25:58.779Z,12.77
2018-04-24T07:28:26.161Z,10.80
2018-04-24T07:30:53.545Z,10.97
2018-04-24T07:33:20.928Z,11.97
2018-04-24T07:35:48.328Z,10.87
2018-04-24T07:38:16.389Z,10.20
2018-04-24T07:40:43.785Z,11.13
2018-04-24T07:43:11.772Z,13.13
2018-04-24T07:45:39.168Z,9.53
2018-04-24T07:48:06.539Z,9.57
2018-04-24T07:50:33.936Z,10.90
2018-04-24T07:53:01.316Z,10.03
2018-04-24T07:55:28.712Z,12.23
2018-04-24T07:57:56.086Z,11.13
2018-04-24T08:00:23.476Z,9.60
2018-04-24T08:02:50.855Z,12.37
2018-04-24T08:05:18.259Z,8.93
2018-04-24T08:07:45.625Z,8.63
2018-04-24T08:10:12.995Z,8.70
2018-04-24T08:12:40.392Z,10.33
2018-04-24T08:15:07.767Z,8.90
2018-04-24T08:17:35.155Z,8.73
2018-04-24T08:20:02.530Z,8.87
2018-04-24T08:22:38.662Z,7.73
2018-04-24T08:25:06.030Z,8.40
2018-04-24T08:27:33.406Z,9.00
2018-04-24T08:30:00.842Z,9.13
2018-04-24T08:32:28.223Z,8.73
2018-04-24T08:34:55.599Z,8.70
2018-04-24T08:37:22.982Z,8.30
2018-04-24T08:39:50.356Z,9.63
2018-04-24T08:42:17.739Z,9.60
2018-04-24T08:44:45.128Z,7.70
2018-04-24T08:47:12.502Z,8.53
2018-04-24T08:49:39.881Z,8.83
2018-04-24T08:52:07.260Z,8.60
2018-04-24T08:54:34.636Z,9.50
2018-04-24T08:57:02.028Z,8.13
2018-04-24T08:59:29.415Z,7.17
2018-04-24T09:01:56.854Z,7.43
2018-04-24T09:04:25.956Z,7.17
2018-04-24T09:06:53.327Z,8.40
2018-04-24T09:09:20.717Z,9.07
2018-04-24T09:11:48.083Z,7.23
2018-04-24T09:14:15.462Z,8.00
2018-04-24T09:16:42.848Z,8.80
2018-04-24T09:19:10.235Z,7.70
2018-04-24T09:21:37.612Z,9.20
2018-04-24T09:24:05.001Z,7.33
2018-04-24T09:26:32.379Z,6.07
2018-04-24T09:28:59.767Z,7.57
2018-04-24T09:31:32.620Z,6.40
2018-04-24T09:34:00.015Z,13.27
2018-04-24T09:36:27.402Z,6.37
2018-04-24T09:38:54.865Z,6.70
2018-04-24T09:41:22.163Z,6.23
2018-04-24T09:43:49.564Z,8.87
2018-04-24T09:46:16.932Z,5.80
2018-04-24T09:48:44.303Z,6.80
2018-04-24T09:51:11.690Z,5.50
2018-04-24T09:53:39.073Z,4.20
2018-04-24T09:56:06.459Z,4.10
2018-04-24T09:58:33.848Z,3.97
2018-04-24T10:01:01.238Z,4.00
2018-04-24T10:03:28.621Z,5.17
2018-04-24T10:05:56.006Z,4.50
2018-04-24T10:08:24.183Z,6.90
2018-04-24T10:10:51.566Z,5.90
2018-04-24T10:13:18.953Z,6.93
2018-04-24T10:15:46.343Z,5.60
2018-04-24T10:18:13.765Z,5.73
2018-04-24T10:20:41.182Z,5.30
2018-04-24T10:23:08.606Z,5.47
2018-04-24T10:25:35.975Z,6.53
2018-04-24T10:28:03.359Z,5.00
2018-04-24T10:30:30.738Z,5.33
2018-04-24T10:32:58.133Z,5.47
2018-04-24T10:35:25.553Z,7.80
2018-04-24T10:37:52.938Z,4.93
2018-04-24T10:40:20.426Z,5.00
2018-04-24T10:42:47.936Z,6.90
2018-04-24T10:45:15.360Z,5.90
2018-04-24T10:47:42.752Z,6.40
2018-04-24T10:50:10.119Z,6.00
2018-04-24T10:52:37.514Z,4.93
2018-04-24T10:55:04.957Z,4.27
2018-04-24T10:57:32.375Z,5.87
2018-04-24T10:59:59.755Z,5.23
2018-04-24T11:02:27.464Z,5.00
2018-04-24T11:04:54.983Z,5.93
2018-04-24T11:07:22.381Z,5.90
2018-04-24T11:09:49.765Z,7.43
2018-04-24T11:12:17.152Z,8.00
2018-04-24T11:14:44.536Z,4.30
2018-04-24T11:17:11.907Z,5.70
2018-04-24T11:19:39.295Z,4.07
2018-04-24T11:22:06.679Z,4.90
2018-04-24T11:24:34.081Z,4.00
2018-04-24T11:27:01.447Z,4.17
2018-04-24T11:29:28.836Z,4.20
2018-04-24T11:31:56.208Z,5.77
2018-04-24T11:34:23.633Z,6.00
2018-04-24T11:36:50.992Z,5.17
2018-04-24T11:39:18.393Z,3.90
2018-04-24T11:41:45.767Z,4.60
2018-04-24T11:44:13.180Z,5.43
2018-04-24T11:46:40.551Z,5.60
2018-04-24T11:49:07.927Z,5.50
2018-04-24T11:51:35.340Z,4.70
2018-04-24T11:54:02.724Z,5.83
2018-04-24T11:56:30.116Z,4.03
2018-04-24T11:58:57.495Z,5.37
2018-04-24T12:01:24.879Z,4.70
2018-04-24T12:03:52.255Z,3.83
2018-04-24T12:06:19.870Z,3.80
2018-04-24T12:08:47.267Z,7.60
2018-04-24T12:11:14.648Z,3.80
2018-04-24T12:13:42.028Z,5.57
2018-04-24T12:16:09.415Z,3.60
2018-04-24T12:18:36.796Z,3.73
2018-04-24T12:21:04.192Z,3.60
2018-04-24T12:23:31.568Z,3.57
2018-04-24T12:25:58.970Z,3.40
2018-04-24T12:28:26.365Z,3.30
2018-04-24T12:30:53.923Z,5.47
2018-04-24T12:33:21.347Z,3.37
2018-04-24T12:35:48.906Z,3.93
2018-04-24T12:38:17.067Z,3.60
2018-04-24T12:40:44.439Z,4.43
2018-04-24T12:43:11.832Z,3.63
2018-04-24T12:45:39.204Z,4.70
2018-04-24T12:48:06.583Z,4.20
2018-04-24T12:50:34.007Z,2.93
2018-04-24T12:53:01.474Z,4.60
2018-04-24T12:55:28.829Z,2.17
2018-04-24T12:57:56.337Z,2.43
2018-04-24T13:00:23.614Z,3.93
2018-04-24T13:02:51.042Z,4.27
2018-04-24T13:05:18.477Z,4.20
2018-04-24T13:07:45.876Z,2.27
2018-04-24T13:10:13.300Z,6.67
2018-04-24T13:12:40.674Z,2.50
2018-04-24T13:15:08.061Z,2.83
2018-04-24T13:17:35.442Z,3.20
2018-04-24T13:20:02.835Z,2.53
2018-04-24T13:22:30.207Z,2.83
2018-04-24T13:24:57.601Z,5.43
2018-04-24T13:27:24.983Z,5.70
2018-04-24T13:29:52.377Z,4.70
2018-04-24T13:32:19.750Z,2.77
2018-04-24T13:34:47.149Z,2.50
2018-04-24T13:37:14.621Z,2.63
2018-04-24T13:39:41.923Z,2.03
2018-04-24T13:42:09.400Z,7.73
2018-04-24T13:44:36.933Z,3.50
2018-04-24T13:47:04.323Z,3.07
2018-04-24T13:49:31.720Z,2.97
2018-04-24T13:51:59.099Z,2.30
2018-04-24T13:54:26.502Z,2.03
2018-04-24T13:56:53.887Z,2.07
2018-04-24T13:59:21.271Z,2.63
2018-04-24T14:01:48.840Z,2.30
2018-04-24T14:04:16.204Z,3.30
2018-04-24T14:06:43.611Z,3.63
2018-04-24T14:09:10.998Z,2.30
2018-04-24T14:11:38.455Z,3.03
2018-04-24T14:14:05.872Z,4.87
2018-04-24T14:16:33.249Z,2.57
2018-04-24T14:19:00.640Z,1.83
2018-04-24T14:21:29.741Z,3.93
2018-04-24T14:23:57.110Z,3.00
2018-04-24T14:26:24.508Z,3.50
2018-04-24T14:28:51.897Z,2.20
2018-04-24T14:31:19.284Z,1.50
2018-04-24T14:33:46.696Z,2.40
2018-04-24T14:36:14.205Z,1.87
2018-04-24T14:38:41.660Z,4.00
2018-04-24T14:41:08.951Z,1.67
2018-04-24T14:43:36.433Z,2.10
2018-04-24T14:46:03.983Z,2.17
2018-04-24T14:48:31.468Z,2.20
2018-04-24T14:50:58.883Z,4.97
2018-04-24T14:53:26.264Z,1.87
2018-04-24T14:55:53.643Z,3.70
2018-04-24T14:58:21.083Z,2.70
2018-04-24T15:00:48.496Z,2.67
2018-04-24T15:03:16.050Z,4.07
2018-04-24T15:05:43.479Z,2.17
2018-04-24T15:08:10.872Z,2.60
2018-04-24T15:10:38.242Z,1.77
2018-04-24T15:13:05.654Z,4.03
2018-04-24T15:15:33.150Z,4.23
2018-04-24T15:18:00.537Z,1.80
2018-04-24T15:20:28.322Z,2.37
2018-04-24T15:22:55.683Z,2.13
2018-04-24T15:25:23.064Z,1.97
2018-04-24T15:27:50.441Z,1.60
2018-04-24T15:30:17.830Z,2.13
2018-04-24T15:32:45.208Z,5.57
2018-04-24T15:35:12.593Z,2.20
2018-04-24T15:37:40.119Z,5.37
2018-04-24T15:40:07.500Z,4.40
2018-04-24T15:42:34.891Z,2.93
2018-04-24T15:45:02.278Z,2.63
2018-04-24T15:47:29.644Z,3.20
2018-04-24T15:49:57.031Z,1.53
2018-04-24T15:52:24.423Z,4.00
2018-04-24T15:54:51.871Z,2.50
2018-04-24T15:57:19.199Z,4.57
2018-04-24T15:59:46.595Z,3.50
2018-04-24T16:02:13.971Z,6.53
2018-04-24T16:04:41.354Z,5.70
2018-04-24T16:07:08.747Z,4.40
2018-04-24T16:09:36.164Z,2.53
2018-04-24T16:12:03.547Z,2.73
2018-04-24T16:14:30.932Z,2.87
2018-04-24T16:16:58.330Z,5.60
2018-04-24T16:19:25.812Z,3.40
2018-04-24T16:21:53.090Z,4.43
2018-04-24T16:24:20.497Z,2.87
2018-04-24T16:26:47.930Z,3.07
2018-04-24T16:29:15.330Z,3.00
2018-04-24T16:31:42.729Z,2.80
2018-04-24T16:34:10.124Z,5.30
2018-04-24T16:36:37.507Z,2.33
2018-04-24T16:39:05.577Z,3.17
2018-04-24T16:41:32.950Z,2.83
2018-04-24T16:44:00.389Z,3.30
2018-04-24T16:46:27.819Z,2.17
2018-04-24T16:48:55.155Z,4.07
2018-04-24T16:51:22.549Z,2.60
2018-04-24T16:53:49.943Z,4.43
2018-04-24T16:56:17.422Z,4.53
2018-04-24T16:58:44.718Z,3.00
2018-04-24T17:01:12.087Z,3.37
2018-04-24T17:03:39.473Z,3.20
2018-04-24T17:06:06.910Z,3.93
2018-04-24T17:08:34.225Z,3.23
2018-04-24T17:11:01.604Z,4.83
2018-04-24T17:13:29.006Z,2.27
2018-04-24T17:15:56.379Z,3.13
2018-04-24T17:18:23.752Z,3.97
2018-04-24T17:20:51.142Z,2.97
2018-04-24T17:23:18.517Z,3.60
2018-04-24T17:25:45.902Z,4.63
2018-04-24T17:28:13.310Z,2.63
2018-04-24T17:30:40.727Z,4.10
2018-04-24T17:33:08.115Z,3.80
2018-04-24T17:35:35.504Z,4.97
2018-04-24T17:38:03.709Z,3.10
2018-04-24T17:40:31.105Z,4.37
2018-04-24T17:42:58.487Z,3.30
2018-04-24T17:45:26.152Z,3.10
2018-04-24T17:47:53.561Z,3.00
2018-04-24T17:50:20.940Z,4.13
2018-04-24T17:52:48.320Z,4.57
2018-04-24T17:55:15.733Z,6.63
2018-04-24T17:57:43.130Z,2.33
2018-04-24T18:00:10.517Z,3.63
2018-04-24T18:02:37.900Z,4.10
2018-04-24T18:05:05.289Z,2.20
2018-04-24T18:07:32.667Z,2.40
2018-04-24T18:10:00.044Z,5.97
2018-04-24T18:12:28.148Z,7.53
2018-04-24T18:14:55.519Z,8.23
2018-04-24T18:17:22.913Z,3.73
2018-04-24T18:19:50.287Z,3.03
2018-04-24T18:22:17.680Z,4.80
2018-04-24T18:24:45.071Z,4.53
2018-04-24T18:27:12.478Z,4.63
2018-04-24T18:29:39.914Z,3.60
2018-04-24T18:32:07.462Z,2.23
2018-04-24T18:34:34.865Z,4.50
2018-04-24T18:37:02.213Z,4.20
2018-04-24T18:39:29.605Z,5.80
2018-04-24T18:41:56.964Z,5.10
2018-04-24T18:44:25.244Z,4.43
2018-04-24T18:46:52.596Z,3.20
2018-04-24T18:49:19.979Z,3.63
2018-04-24T18:51:47.352Z,3.37
2018-04-24T18:54:14.735Z,2.50
2018-04-24T18:56:42.121Z,2.40
2018-04-24T18:59:09.502Z,2.73
2018-04-24T19:01:36.884Z,3.10
2018-04-24T19:04:04.269Z,4.77
2018-04-24T19:06:31.636Z,2.73
2018-04-24T19:08:59.012Z,2.87
2018-04-24T19:11:26.389Z,2.77
2018-04-24T19:13:53.785Z,4.43
2018-04-24T19:16:21.151Z,4.53
2018-04-24T19:18:54.048Z,4.03
2018-04-24T19:21:21.427Z,6.83
2018-04-24T19:23:48.809Z,3.57
2018-04-24T19:26:16.456Z,2.80
2018-04-24T19:28:43.835Z,4.37
2018-04-24T19:34:11.468Z,4.00
2018-04-24T19:36:38.867Z,5.53
2018-04-24T19:39:12.928Z,5.67
2018-04-24T19:41:45.873Z,3.77
2018-04-24T19:44:13.251Z,3.63
2018-04-24T19:46:40.629Z,2.53
2018-04-24T19:49:13.615Z,2.93
2018-04-24T19:51:40.915Z,3.47
2018-04-24T19:54:08.294Z,3.47
2018-04-24T19:56:35.667Z,3.27
2018-04-24T19:59:03.040Z,4.07
2018-04-24T20:01:30.428Z,3.13
2018-04-24T20:03:57.809Z,4.03
2018-04-24T20:06:25.172Z,4.10
2018-04-24T20:08:52.546Z,3.30
2018-04-24T20:11:19.935Z,3.07
2018-04-24T20:13:47.338Z,4.13
2018-04-24T20:16:14.704Z,3.20
2018-04-24T20:18:42.087Z,4.63
2018-04-24T20:21:09.462Z,4.60
2018-04-24T20:23:36.847Z,3.43
2018-04-24T20:26:04.214Z,4.13
2018-04-24T20:28:31.605Z,5.00
2018-04-24T20:30:58.988Z,4.40
2018-04-24T20:33:26.363Z,4.70
2018-04-24T20:35:53.743Z,3.50
2018-04-24T20:38:21.116Z,4.30
2018-04-24T20:40:48.498Z,3.80
2018-04-24T20:43:15.876Z,3.00
2018-04-24T20:45:43.268Z,5.57
2018-04-24T20:48:10.636Z,3.87
2018-04-24T20:50:38.032Z,3.60
2018-04-24T20:53:05.445Z,4.23
2018-04-24T20:55:32.780Z,5.20
2018-04-24T20:58:00.171Z,3.33
2018-04-24T21:00:27.554Z,3.67
2018-04-24T21:02:54.924Z,3.13
2018-04-24T21:05:22.308Z,5.00
2018-04-24T21:07:49.687Z,7.93
2018-04-24T21:10:17.084Z,4.90
2018-04-24T21:12:44.462Z,3.50
2018-04-24T21:15:11.844Z,3.77
2018-04-24T21:17:39.226Z,3.93
2018-04-24T21:20:06.608Z,4.67
2018-04-24T21:22:34.002Z,5.27
2018-04-24T21:25:01.408Z,5.53
2018-04-24T21:27:28.949Z,5.00
2018-04-24T21:29:56.360Z,3.93
2018-04-24T21:32:23.732Z,4.20
2018-04-24T21:34:51.115Z,5.13
2018-04-24T21:37:18.506Z,5.33
2018-04-24T21:39:45.891Z,3.87
2018-04-24T21:42:13.288Z,4.20
2018-04-24T21:44:41.059Z,4.20
2018-04-24T21:47:08.444Z,4.37
2018-04-24T21:49:35.820Z,3.60
2018-04-24T21:52:03.214Z,4.30
2018-04-24T21:54:30.619Z,4.67
2018-04-24T21:56:57.999Z,3.83
2018-04-24T21:59:25.374Z,4.70
2018-04-24T22:01:52.767Z,4.13
2018-04-24T22:04:20.146Z,4.37
2018-04-24T22:06:47.526Z,4.30
2018-04-24T22:09:14.922Z,4.33
2018-04-24T22:11:42.538Z,3.70
2018-04-24T22:14:10.212Z,5.30
2018-04-24T22:16:37.802Z,4.10
2018-04-24T22:19:06.031Z,5.40
2018-04-24T22:21:33.411Z,4.30
2018-04-24T22:24:00.799Z,4.17
2018-04-24T22:26:28.185Z,5.07
2018-04-24T22:28:55.577Z,4.23
2018-04-24T22:31:22.959Z,5.00
2018-04-24T22:33:50.340Z,3.60
2018-04-24T22:36:17.899Z,4.20
2018-04-24T22:38:45.298Z,5.60
2018-04-24T22:41:12.679Z,5.30
2018-04-24T22:43:40.065Z,4.10
2018-04-24T22:46:07.441Z,4.57
2018-04-24T22:48:34.820Z,4.30
2018-04-24T22:51:02.204Z,4.23
2018-04-24T22:53:29.589Z,4.80
2018-04-24T22:55:56.968Z,5.67
2018-04-24T22:58:24.369Z,8.47
2018-04-24T23:00:51.755Z,5.47
2018-04-24T23:03:19.124Z,4.90
2018-04-24T23:05:46.527Z,4.17
2018-04-24T23:08:14.029Z,6.60
2018-04-24T23:10:53.176Z,5.97
2018-04-24T23:13:32.265Z,4.40
2018-04-24T23:16:11.515Z,4.23
2018-04-24T23:18:50.548Z,4.13
2018-04-24T23:21:17.396Z,4.13
2018-04-24T23:23:44.776Z,4.43
2018-04-24T23:26:12.164Z,6.80
2018-04-24T23:28:39.552Z,4.40
2018-04-24T23:31:06.937Z,4.80
2018-04-24T23:33:34.305Z,5.13
2018-04-24T23:36:01.712Z,5.13
2018-04-24T23:38:29.172Z,5.60
2018-04-24T23:40:56.476Z,4.57
2018-04-24T23:43:23.852Z,5.17
2018-04-24T23:45:51.242Z,5.60
2018-04-24T23:48:18.639Z,5.60
2018-04-24T23:50:46.016Z,5.97
2018-04-24T23:53:13.412Z,6.53
2018-04-24T23:55:40.799Z,6.80
2018-04-24T23:58:08.319Z,7.00
